createdAt,value
2019-01-21T00:00:47.297Z,48.30
2019-01-21T00:03:20.339Z,48.30
2019-01-21T00:05:52.019Z,48.40
2019-01-21T00:08:23.390Z,48.40
2019-01-21T00:10:54.764Z,48.30
2019-01-21T00:13:26.120Z,48.10
2019-01-21T00:15:57.578Z,48.00
2019-01-21T00:18:28.937Z,48.20
2019-01-21T00:21:00.365Z,48.20
2019-01-21T00:23:31.742Z,48.40
2019-01-21T00:26:03.185Z,48.30
2019-01-21T00:28:34.549Z,48.40
2019-01-21T00:31:06.022Z,48.30
2019-01-21T00:33:37.264Z,48.30
2019-01-21T00:36:08.685Z,48.30
2019-01-21T00:38:40.040Z,48.20
2019-01-21T00:41:11.432Z,48.20
2019-01-21T00:43:54.658Z,48.30
2019-01-21T00:46:26.053Z,48.30
2019-01-21T00:48:58.311Z,48.20
2019-01-21T00:51:29.603Z,48.20
2019-01-21T00:54:12.952Z,48.30
2019-01-21T00:56:44.332Z,48.30
2019-01-21T00:59:15.644Z,48.30
2019-01-21T01:01:58.583Z,48.40
2019-01-21T01:04:29.933Z,48.50
2019-01-21T01:07:01.317Z,48.50
2019-01-21T01:09:32.698Z,48.40
2019-01-21T01:12:04.132Z,48.40
2019-01-21T01:14:47.360Z,48.90
2019-01-21T01:17:18.768Z,48.40
2019-01-21T01:19:50.153Z,48.40
2019-01-21T01:22:21.555Z,48.30
2019-01-21T01:24:52.905Z,48.40
2019-01-21T01:27:36.141Z,48.40
2019-01-21T01:30:09.144Z,48.30
2019-01-21T01:32:40.672Z,48.30
2019-01-21T01:35:13.313Z,48.30
2019-01-21T01:37:44.922Z,48.40
2019-01-21T01:40:20.216Z,48.50
2019-01-21T01:42:51.629Z,48.40
2019-01-21T01:45:24.796Z,48.50
2019-01-21T01:48:00.536Z,48.50
2019-01-21T01:50:32.977Z,48.40
2019-01-21T01:53:04.685Z,48.40
2019-01-21T01:55:36.045Z,48.40
2019-01-21T01:58:07.775Z,48.40
2019-01-21T02:00:39.200Z,48.40
2019-01-21T02:03:10.698Z,48.40
2019-01-21T02:05:42.007Z,48.30
2019-01-21T02:08:13.411Z,48.30
2019-01-21T02:10:44.816Z,48.00
2019-01-21T02:13:27.964Z,48.00
2019-01-21T02:15:59.410Z,48.00
2019-01-21T02:18:31.020Z,48.20
2019-01-21T02:21:05.685Z,48.30
2019-01-21T02:23:38.173Z,48.20
2019-01-21T02:26:30.573Z,48.30
2019-01-21T02:29:06.255Z,48.30
2019-01-21T02:32:16.738Z,48.30
2019-01-21T02:34:57.609Z,48.30
2019-01-21T02:37:53.365Z,48.30
2019-01-21T02:40:40.491Z,48.20
2019-01-21T02:43:33.780Z,48.20
2019-01-21T02:46:44.521Z,48.20
2019-01-21T02:50:05.080Z,48.30
2019-01-21T02:53:11.880Z,48.30
2019-01-21T02:56:20.121Z,48.20
2019-01-21T02:59:12.382Z,48.30
2019-01-21T03:02:06.009Z,48.50
2019-01-21T03:04:49.370Z,48.30
2019-01-21T03:07:46.185Z,48.20
2019-01-21T03:10:38.528Z,48.30
2019-01-21T03:14:15.322Z,48.40
2019-01-21T03:16:58.801Z,48.40
2019-01-21T03:20:14.368Z,48.30
2019-01-21T03:23:05.810Z,48.30
2019-01-21T03:26:15.952Z,48.30
2019-01-21T03:29:08.102Z,48.90
2019-01-21T03:31:57.985Z,48.40
2019-01-21T03:34:59.139Z,48.40
2019-01-21T03:38:26.605Z,48.40
2019-01-21T03:41:26.261Z,48.40
2019-01-21T03:44:21.953Z,48.40
2019-01-21T03:47:28.967Z,48.40
2019-01-21T03:50:17.055Z,48.40
2019-01-21T03:53:26.809Z,48.40
2019-01-21T03:56:02.490Z,48.40
2019-01-21T03:58:50.344Z,48.40
2019-01-21T04:01:46.219Z,48.40
2019-01-21T04:04:54.897Z,48.40
2019-01-21T04:07:57.849Z,48.40
2019-01-21T04:11:04.696Z,48.40
2019-01-21T04:14:30.698Z,48.30
2019-01-21T04:17:25.799Z,48.80
2019-01-21T04:20:09.339Z,48.10
2019-01-21T04:23:19.068Z,48.10
2019-01-21T04:26:32.020Z,48.20
2019-01-21T04:29:21.423Z,48.20
2019-01-21T04:32:02.691Z,48.00
2019-01-21T04:35:12.013Z,47.90
2019-01-21T04:38:21.647Z,48.00
2019-01-21T04:41:22.050Z,48.00
2019-01-21T04:44:40.272Z,48.00
2019-01-21T04:47:43.122Z,47.90
2019-01-21T04:51:16.336Z,47.90
2019-01-21T04:54:27.474Z,47.90
2019-01-21T04:57:10.641Z,47.90
2019-01-21T05:00:05.049Z,47.90
2019-01-21T05:03:16.522Z,47.90
2019-01-21T05:06:15.836Z,48.60
2019-01-21T05:09:11.520Z,47.90
2019-01-21T05:12:07.057Z,47.70
2019-01-21T05:15:43.899Z,47.50
2019-01-21T05:18:41.340Z,47.60
2019-01-21T05:22:01.493Z,47.70
2019-01-21T05:25:19.754Z,47.70
2019-01-21T05:28:17.393Z,47.60
2019-01-21T05:31:09.366Z,47.60
2019-01-21T05:34:09.765Z,47.50
2019-01-21T05:37:12.263Z,47.50
2019-01-21T05:40:22.812Z,47.50
2019-01-21T05:43:27.356Z,47.40
2019-01-21T05:46:36.795Z,47.30
2019-01-21T05:49:52.092Z,47.40
2019-01-21T05:53:01.685Z,47.30
2019-01-21T05:55:44.478Z,47.30
2019-01-21T05:58:27.610Z,47.40
2019-01-21T06:01:44.840Z,47.50
2019-01-21T06:05:24.560Z,47.50
2019-01-21T06:08:31.538Z,47.50
2019-01-21T06:11:34.076Z,47.40
2019-01-21T06:14:45.464Z,47.40
2019-01-21T06:17:28.198Z,47.40
2019-01-21T06:20:14.841Z,47.20
2019-01-21T06:23:39.351Z,47.10
2019-01-21T06:26:55.952Z,47.00
2019-01-21T06:29:37.265Z,47.20
2019-01-21T06:33:04.860Z,47.20
2019-01-21T06:36:03.272Z,47.20
2019-01-21T06:38:46.567Z,47.20
2019-01-21T06:42:08.075Z,47.10
2019-01-21T06:45:18.913Z,47.20
2019-01-21T06:48:17.613Z,47.10
2019-01-21T06:51:29.169Z,47.00
2019-01-21T06:54:55.541Z,46.90
2019-01-21T06:57:51.291Z,47.00
2019-01-21T07:00:55.249Z,47.10
2019-01-21T07:04:00.497Z,47.10
2019-01-21T07:07:10.128Z,47.20
2019-01-21T07:10:13.705Z,47.20
2019-01-21T07:13:10.780Z,47.10
2019-01-21T07:16:10.656Z,47.20
2019-01-21T07:19:11.128Z,47.00
2019-01-21T07:21:54.449Z,47.00
2019-01-21T07:25:21.026Z,47.10
2019-01-21T07:28:27.818Z,47.00
2019-01-21T07:31:36.468Z,46.90
2019-01-21T07:34:57.776Z,46.90
2019-01-21T07:38:05.617Z,47.10
2019-01-21T07:41:04.088Z,47.10
2019-01-21T07:44:19.561Z,47.10
2019-01-21T07:47:45.996Z,47.00
2019-01-21T07:50:59.943Z,47.00
2019-01-21T07:54:10.204Z,46.90
2019-01-21T07:57:18.324Z,46.90
2019-01-21T08:00:19.824Z,46.60
2019-01-21T08:03:18.661Z,46.60
2019-01-21T08:06:15.264Z,46.70
2019-01-21T08:09:09.176Z,46.70
2019-01-21T08:12:15.701Z,46.80
2019-01-21T08:15:28.216Z,46.70
2019-01-21T08:18:37.501Z,46.70
2019-01-21T08:21:24.587Z,46.70
2019-01-21T08:24:55.086Z,46.60
2019-01-21T08:27:57.752Z,46.70
2019-01-21T08:30:39.850Z,46.70
2019-01-21T08:34:00.786Z,46.70
2019-01-21T08:37:07.902Z,46.40
2019-01-21T08:40:17.382Z,46.50
2019-01-21T08:43:19.025Z,46.50
2019-01-21T08:46:15.137Z,46.50
2019-01-21T08:49:30.854Z,46.30
2019-01-21T08:52:32.945Z,46.20
2019-01-21T08:55:31.404Z,46.40
2019-01-21T08:58:39.788Z,46.40
2019-01-21T09:01:41.725Z,46.50
2019-01-21T09:04:36.755Z,46.50
2019-01-21T09:07:33.010Z,46.40
2019-01-21T09:10:27.436Z,46.50
2019-01-21T09:13:29.109Z,46.50
2019-01-21T09:16:38.732Z,46.50
2019-01-21T09:19:38.124Z,46.10
2019-01-21T09:22:31.165Z,45.90
2019-01-21T09:25:22.905Z,45.90
2019-01-21T09:28:13.517Z,45.70
2019-01-21T09:31:16.523Z,45.60
2019-01-21T09:34:38.062Z,46.30
2019-01-21T09:38:11.524Z,45.70
2019-01-21T09:41:03.445Z,45.70
2019-01-21T09:43:45.041Z,45.90
2019-01-21T09:46:49.196Z,45.80
2019-01-21T09:49:19.097Z,45.70
2019-01-21T09:52:05.081Z,45.40
2019-01-21T09:54:38.533Z,45.10
2019-01-21T09:57:24.697Z,45.10
2019-01-21T10:00:03.028Z,45.20
2019-01-21T10:02:44.056Z,45.30
2019-01-21T10:05:16.786Z,45.20
2019-01-21T10:08:01.327Z,45.10
2019-01-21T10:11:22.804Z,45.00
2019-01-21T10:14:32.653Z,45.20
2019-01-21T10:17:35.239Z,45.10
2019-01-21T10:20:18.572Z,45.20
2019-01-21T10:23:46.414Z,45.00
2019-01-21T10:27:08.542Z,44.90
2019-01-21T10:30:21.709Z,44.80
2019-01-21T10:33:31.314Z,44.80
2019-01-21T10:36:42.370Z,44.60
2019-01-21T10:39:53.434Z,44.60
2019-01-21T10:42:56.685Z,44.70
2019-01-21T10:45:40.458Z,44.80
2019-01-21T10:48:39.371Z,44.60
2019-01-21T10:51:38.000Z,44.80
2019-01-21T10:54:33.968Z,44.90
2019-01-21T10:57:40.020Z,45.00
2019-01-21T11:00:53.147Z,44.90
2019-01-21T11:03:37.168Z,44.70
2019-01-21T11:06:52.741Z,44.80
2019-01-21T11:10:14.393Z,44.80
2019-01-21T11:12:58.850Z,44.70
2019-01-21T11:15:55.088Z,44.80
2019-01-21T11:18:40.817Z,44.30
2019-01-21T11:21:35.920Z,44.00
2019-01-21T11:24:41.532Z,44.00
2019-01-21T11:28:03.854Z,44.20
2019-01-21T11:30:56.122Z,44.30
2019-01-21T11:33:51.936Z,44.70
2019-01-21T11:36:57.812Z,44.00
2019-01-21T11:39:55.361Z,44.00
2019-01-21T11:42:47.743Z,44.20
2019-01-21T11:45:31.997Z,44.30
2019-01-21T11:48:31.032Z,44.30
2019-01-21T11:51:44.800Z,44.30
2019-01-21T11:55:00.621Z,44.20
2019-01-21T11:58:05.000Z,44.20
2019-01-21T12:01:01.220Z,44.00
2019-01-21T12:03:46.392Z,44.10
2019-01-21T12:06:47.213Z,44.10
2019-01-21T12:10:10.542Z,44.00
2019-01-21T12:13:27.594Z,43.90
2019-01-21T12:16:36.021Z,44.00
2019-01-21T12:19:46.960Z,43.90
2019-01-21T12:22:47.093Z,44.10
2019-01-21T12:25:34.140Z,43.90
2019-01-21T12:28:26.187Z,43.80
2019-01-21T12:31:29.663Z,43.60
2019-01-21T12:34:38.267Z,43.80
2019-01-21T12:38:14.685Z,43.90
2019-01-21T12:41:22.980Z,43.60
2019-01-21T12:44:18.293Z,43.70
2019-01-21T12:47:17.969Z,44.00
2019-01-21T12:50:33.536Z,44.00
2019-01-21T12:53:33.193Z,44.00
2019-01-21T12:56:45.869Z,44.00
2019-01-21T12:59:30.513Z,44.00
2019-01-21T13:02:38.500Z,44.00
2019-01-21T13:05:19.329Z,43.90
2019-01-21T13:08:45.673Z,44.00
2019-01-21T13:11:54.753Z,44.00
2019-01-21T13:14:44.792Z,44.20
2019-01-21T13:17:44.348Z,44.20
2019-01-21T13:20:48.411Z,44.00
2019-01-21T13:23:43.660Z,43.80
2019-01-21T13:26:55.317Z,43.70
2019-01-21T13:29:49.625Z,43.80
2019-01-21T13:32:52.356Z,43.80
2019-01-21T13:35:55.455Z,43.60
2019-01-21T13:39:04.527Z,43.60
2019-01-21T13:41:59.578Z,43.80
2019-01-21T13:45:27.153Z,44.00
2019-01-21T13:48:10.331Z,44.00
2019-01-21T13:51:13.756Z,44.00
2019-01-21T13:54:13.392Z,44.10
2019-01-21T13:57:24.727Z,44.20
2019-01-21T14:00:24.088Z,44.00
2019-01-21T14:03:45.547Z,44.00
2019-01-21T14:06:59.142Z,44.00
2019-01-21T14:10:04.421Z,43.90
2019-01-21T14:13:12.778Z,43.80
2019-01-21T14:16:17.415Z,43.80
2019-01-21T14:19:11.212Z,43.80
2019-01-21T14:21:54.426Z,43.80
2019-01-21T14:25:05.205Z,43.80
2019-01-21T14:28:27.020Z,43.90
2019-01-21T14:31:46.924Z,44.00
2019-01-21T14:35:08.685Z,44.10
2019-01-21T14:38:23.661Z,44.10
2019-01-21T14:41:44.958Z,44.10
2019-01-21T14:44:46.775Z,43.90
2019-01-21T14:47:48.156Z,43.80
2019-01-21T14:51:18.793Z,44.00
2019-01-21T14:54:21.758Z,44.20
2019-01-21T14:57:24.960Z,44.20
2019-01-21T15:00:34.744Z,44.10
2019-01-21T15:03:18.166Z,44.30
2019-01-21T15:06:26.277Z,43.90
2019-01-21T15:09:24.546Z,43.90
2019-01-21T15:12:34.411Z,44.00
2019-01-21T15:15:55.384Z,44.10
2019-01-21T15:18:51.513Z,44.20
2019-01-21T15:22:07.140Z,44.30
2019-01-21T15:25:11.533Z,44.20
2019-01-21T15:28:21.128Z,44.20
2019-01-21T15:31:04.050Z,44.10
2019-01-21T15:33:47.316Z,44.00
2019-01-21T15:36:30.241Z,43.90
2019-01-21T15:39:13.474Z,43.90
2019-01-21T15:42:10.163Z,43.90
2019-01-21T15:45:29.004Z,44.00
2019-01-21T15:48:36.481Z,44.00
2019-01-21T15:51:42.442Z,44.10
2019-01-21T15:54:30.900Z,44.10
2019-01-21T15:57:42.100Z,44.10
2019-01-21T16:00:40.272Z,44.10
2019-01-21T16:03:46.128Z,44.20
2019-01-21T16:07:05.772Z,44.40
2019-01-21T16:10:13.832Z,44.40
2019-01-21T16:12:56.601Z,44.50
2019-01-21T16:15:54.379Z,44.50
2019-01-21T16:18:36.682Z,45.30
2019-01-21T16:21:46.539Z,44.70
2019-01-21T16:25:23.154Z,44.80
2019-01-21T16:28:48.008Z,44.80
2019-01-21T16:31:50.496Z,45.00
2019-01-21T16:35:18.155Z,45.00
2019-01-21T16:38:09.673Z,45.10
2019-01-21T16:41:36.916Z,45.10
2019-01-21T16:44:08.368Z,45.20
2019-01-21T16:46:40.710Z,45.20
2019-01-21T16:49:12.176Z,45.40
2019-01-21T16:51:43.542Z,45.40
2019-01-21T16:54:14.956Z,45.50
2019-01-21T16:56:46.381Z,45.50
2019-01-21T16:59:17.909Z,45.60
2019-01-21T17:01:49.281Z,45.70
2019-01-21T17:04:20.741Z,45.80
2019-01-21T17:06:52.092Z,45.80
2019-01-21T17:09:35.766Z,45.90
2019-01-21T17:12:07.212Z,45.70
2019-01-21T17:14:38.640Z,45.90
2019-01-21T17:17:21.520Z,46.00
2019-01-21T17:19:52.969Z,46.00
2019-01-21T17:22:24.337Z,46.00
2019-01-21T17:24:55.748Z,46.20
2019-01-21T17:27:27.118Z,46.30
2019-01-21T17:29:58.505Z,46.40
2019-01-21T17:32:40.044Z,46.40
2019-01-21T17:35:11.976Z,46.50
2019-01-21T17:37:43.412Z,46.50
2019-01-21T17:40:16.276Z,46.60
2019-01-21T17:42:59.409Z,46.60
2019-01-21T17:45:42.258Z,46.50
2019-01-21T17:48:13.632Z,46.50
2019-01-21T17:50:45.033Z,46.70
2019-01-21T17:53:16.384Z,46.70
2019-01-21T17:55:58.007Z,46.70
2019-01-21T17:58:29.373Z,46.80
2019-01-21T18:01:00.893Z,46.90
2019-01-21T18:03:32.258Z,47.00
2019-01-21T18:06:03.778Z,47.10
2019-01-21T18:08:46.544Z,47.10
2019-01-21T18:11:17.928Z,47.20
2019-01-21T18:13:49.328Z,47.20
2019-01-21T18:16:20.797Z,47.20
2019-01-21T18:18:52.221Z,47.20
2019-01-21T18:21:23.692Z,47.20
2019-01-21T18:23:55.053Z,47.20
2019-01-21T18:26:26.523Z,47.30
2019-01-21T18:28:58.263Z,47.30
2019-01-21T18:31:29.904Z,47.30
2019-01-21T18:34:01.355Z,47.30
2019-01-21T18:36:32.810Z,47.30
2019-01-21T18:39:06.672Z,47.30
2019-01-21T18:41:39.550Z,47.40
2019-01-21T18:44:11.064Z,47.50
2019-01-21T18:46:42.488Z,47.60
2019-01-21T18:49:13.840Z,47.60
2019-01-21T18:51:46.701Z,47.70
2019-01-21T18:54:18.495Z,47.80
2019-01-21T18:56:49.884Z,47.80
2019-01-21T18:59:22.509Z,47.80
2019-01-21T19:02:06.017Z,47.90
2019-01-21T19:04:38.353Z,47.90
2019-01-21T19:07:09.780Z,47.90
2019-01-21T19:09:41.153Z,48.00
2019-01-21T19:12:22.744Z,48.10
2019-01-21T19:14:54.048Z,48.00
2019-01-21T19:17:25.472Z,48.10
2019-01-21T19:19:56.872Z,48.20
2019-01-21T19:22:28.255Z,48.20
2019-01-21T19:24:59.736Z,48.20
2019-01-21T19:27:31.326Z,48.30
2019-01-21T19:30:02.693Z,48.30
2019-01-21T19:32:35.540Z,48.30
2019-01-21T19:35:08.205Z,48.20
2019-01-21T19:37:39.653Z,48.30
2019-01-21T19:40:14.637Z,48.40
2019-01-21T19:42:46.023Z,48.30
2019-01-21T19:45:28.895Z,48.50
2019-01-21T19:50:54.434Z,48.50
2019-01-21T19:53:37.560Z,48.40
2019-01-21T19:56:09.144Z,48.40
2019-01-21T19:58:40.643Z,48.50
2019-01-21T20:01:12.066Z,48.60
2019-01-21T20:03:53.673Z,48.70
2019-01-21T20:06:25.126Z,48.70
2019-01-21T20:08:56.694Z,48.70
2019-01-21T20:11:34.704Z,48.80
2019-01-21T20:14:01.955Z,48.80
2019-01-21T20:16:45.637Z,48.90
2019-01-21T20:19:17.052Z,48.90
2019-01-21T20:21:48.512Z,48.80
2019-01-21T20:24:25.953Z,48.80
2019-01-21T20:26:57.323Z,49.10
2019-01-21T20:29:28.692Z,49.00
2019-01-21T20:32:01.085Z,49.00
2019-01-21T20:34:44.184Z,49.10
2019-01-21T20:37:15.708Z,49.20
2019-01-21T20:40:01.474Z,49.20
2019-01-21T20:42:36.785Z,49.20
2019-01-21T20:45:21.349Z,49.20
2019-01-21T20:48:04.933Z,49.30
2019-01-21T20:50:36.577Z,49.40
2019-01-21T20:53:18.647Z,49.50
2019-01-21T20:55:50.668Z,49.50
2019-01-21T20:58:22.493Z,49.50
2019-01-21T21:00:53.868Z,49.50
2019-01-21T21:03:37.595Z,49.60
2019-01-21T21:06:20.849Z,49.70
2019-01-21T21:08:53.657Z,49.70
2019-01-21T21:11:25.173Z,49.70
2019-01-21T21:13:56.597Z,49.70
2019-01-21T21:16:40.149Z,49.70
2019-01-21T21:19:11.724Z,49.70
2019-01-21T21:21:45.267Z,49.70
2019-01-21T21:24:19.369Z,49.60
2019-01-21T21:26:50.890Z,49.60
2019-01-21T21:29:23.029Z,49.60
2019-01-21T21:32:14.745Z,49.60
2019-01-21T21:34:48.149Z,49.70
2019-01-21T21:37:22.721Z,49.70
2019-01-21T21:40:05.992Z,49.80
2019-01-21T21:42:38.710Z,49.80
2019-01-21T21:45:22.581Z,49.80
2019-01-21T21:48:05.835Z,49.70
2019-01-21T21:50:37.265Z,49.80
2019-01-21T21:53:08.761Z,49.90
2019-01-21T21:55:52.073Z,49.90
2019-01-21T21:58:34.158Z,50.00
2019-01-21T22:01:07.156Z,50.10
2019-01-21T22:03:40.441Z,49.90
2019-01-21T22:06:11.991Z,50.00
2019-01-21T22:08:46.976Z,49.90
2019-01-21T22:11:18.617Z,50.00
2019-01-21T22:13:50.121Z,50.00
2019-01-21T22:16:24.825Z,50.10
2019-01-21T22:18:57.880Z,50.10
2019-01-21T22:21:29.577Z,50.10
2019-01-21T22:24:05.775Z,50.10
2019-01-21T22:26:49.619Z,50.20
2019-01-21T22:29:21.020Z,50.20
2019-01-21T22:31:52.997Z,50.20
2019-01-21T22:34:37.698Z,50.20
2019-01-21T22:37:09.457Z,50.20
2019-01-21T22:39:41.065Z,50.30
2019-01-21T22:42:12.676Z,50.30
2019-01-21T22:44:44.064Z,50.80
2019-01-21T22:47:26.845Z,50.30
2019-01-21T22:50:09.748Z,50.20
2019-01-21T22:52:41.985Z,50.30
2019-01-21T22:55:14.628Z,50.40
2019-01-21T22:57:46.116Z,50.40
2019-01-21T23:00:25.876Z,50.40
2019-01-21T23:02:58.372Z,50.30
2019-01-21T23:05:29.778Z,50.30
2019-01-21T23:08:01.181Z,50.30
2019-01-21T23:10:32.538Z,50.30
2019-01-21T23:13:04.363Z,50.30
2019-01-21T23:15:35.785Z,50.30
2019-01-21T23:18:07.518Z,50.40
2019-01-21T23:20:38.901Z,50.40
2019-01-21T23:23:10.589Z,50.50
2019-01-21T23:25:42.032Z,50.50
2019-01-21T23:28:13.397Z,50.70
2019-01-21T23:30:44.831Z,50.60
2019-01-21T23:33:16.209Z,50.60
2019-01-21T23:35:47.552Z,50.60
2019-01-21T23:38:19.074Z,50.60
2019-01-21T23:40:50.571Z,50.70
2019-01-21T23:43:22.173Z,50.80
2019-01-21T23:45:54.955Z,50.90
2019-01-21T23:48:26.436Z,50.90
2019-01-21T23:50:57.907Z,50.90
2019-01-21T23:53:29.398Z,50.90
2019-01-21T23:56:00.761Z,50.90
2019-01-21T23:58:32.181Z,50.90
